createdAt,value
2022-09-16T00:02:54.479Z,2.00
2022-09-16T00:08:05.446Z,2.65
2022-09-16T00:13:12.112Z,2.45
2022-09-16T00:18:20.672Z,2.30
2022-09-16T00:23:26.766Z,2.55
2022-09-16T00:28:33.052Z,2.33
2022-09-16T00:33:40.726Z,2.63
2022-09-16T00:38:46.954Z,2.60
2022-09-16T00:43:57.574Z,2.50
2022-09-16T00:49:12.187Z,3.72
2022-09-16T00:54:20.019Z,2.20
2022-09-16T00:59:30.331Z,2.30
2022-09-16T01:04:45.598Z,2.72
2022-09-16T01:09:51.379Z,3.10
2022-09-16T01:14:58.617Z,2.58
2022-09-16T01:20:51.208Z,2.50
2022-09-16T01:26:20.638Z,2.70
2022-09-16T01:31:33.991Z,2.80
2022-09-16T01:36:49.470Z,2.25
2022-09-16T01:42:21.293Z,2.25
2022-09-16T01:47:39.585Z,2.40
2022-09-16T01:52:52.901Z,2.13
2022-09-16T01:58:04.982Z,2.60
2022-09-16T02:03:17.287Z,1.88
2022-09-16T02:08:33.052Z,2.08
2022-09-16T02:13:44.179Z,2.45
2022-09-16T02:18:56.327Z,2.28
2022-09-16T02:24:09.110Z,1.73
2022-09-16T02:29:22.595Z,1.52
2022-09-16T02:34:34.286Z,1.80
2022-09-16T02:39:44.853Z,1.80
2022-09-16T02:44:51.454Z,1.52
2022-09-16T02:50:03.117Z,1.83
2022-09-16T02:55:17.165Z,1.17
2022-09-16T03:00:23.813Z,1.63
2022-09-16T03:05:31.806Z,1.23
2022-09-16T03:10:45.361Z,1.60
2022-09-16T03:16:02.571Z,1.92
2022-09-16T03:21:18.235Z,1.70
2022-09-16T03:26:33.513Z,1.70
2022-09-16T03:31:47.126Z,1.65
2022-09-16T03:37:00.968Z,1.95
2022-09-16T03:42:11.614Z,1.70
2022-09-16T03:47:19.030Z,1.70
2022-09-16T03:52:27.616Z,1.95
2022-09-16T03:57:34.883Z,1.60
2022-09-16T04:02:41.253Z,1.65
2022-09-16T04:07:51.374Z,1.80
2022-09-16T04:13:00.120Z,1.77
2022-09-16T04:18:06.197Z,1.65
2022-09-16T04:23:13.527Z,1.85
2022-09-16T04:28:19.386Z,1.35
2022-09-16T04:33:28.919Z,2.13
2022-09-16T04:38:36.622Z,2.15
2022-09-16T04:43:43.114Z,1.70
2022-09-16T04:48:50.528Z,1.60
2022-09-16T04:53:58.891Z,1.73
2022-09-16T04:59:07.042Z,1.83
2022-09-16T05:04:13.162Z,1.53
2022-09-16T05:09:22.889Z,1.73
2022-09-16T05:14:30.014Z,1.25
2022-09-16T05:19:36.084Z,1.20
2022-09-16T05:24:44.830Z,1.33
2022-09-16T05:29:51.039Z,1.48
2022-09-16T05:34:57.626Z,1.70
2022-09-16T05:40:05.841Z,1.27
2022-09-16T05:45:12.832Z,1.00
2022-09-16T05:50:19.304Z,1.40
2022-09-16T05:55:27.168Z,1.40
2022-09-16T06:00:33.358Z,0.90
2022-09-16T06:05:43.714Z,1.10
2022-09-16T06:10:53.018Z,1.33
2022-09-16T06:15:59.848Z,1.00
2022-09-16T06:21:08.719Z,0.80
2022-09-16T06:26:19.584Z,1.00
2022-09-16T06:31:29.221Z,0.98
2022-09-16T06:36:42.646Z,0.88
2022-09-16T06:41:52.263Z,0.73
2022-09-16T06:47:02.109Z,0.98
2022-09-16T06:52:09.764Z,1.10
2022-09-16T06:57:18.466Z,0.68
2022-09-16T07:02:24.658Z,0.98
2022-09-16T07:07:34.265Z,0.98
2022-09-16T07:12:41.621Z,0.98
2022-09-16T07:17:47.835Z,0.90
2022-09-16T07:22:55.071Z,0.65
2022-09-16T07:28:03.820Z,0.55
2022-09-16T07:33:09.990Z,0.85
2022-09-16T07:38:18.020Z,0.90
2022-09-16T07:43:25.423Z,0.70
2022-09-16T07:48:34.973Z,0.50
2022-09-16T07:53:42.354Z,1.00
2022-09-16T07:58:50.730Z,0.60
2022-09-16T08:03:59.013Z,0.60
2022-09-16T08:09:27.204Z,0.80
2022-09-16T08:14:34.348Z,0.70
2022-09-16T08:19:42.170Z,0.98
2022-09-16T08:24:48.105Z,0.77
2022-09-16T08:29:55.489Z,0.52
2022-09-16T08:35:02.643Z,0.70
2022-09-16T08:40:16.723Z,0.82
2022-09-16T08:45:36.595Z,0.75
2022-09-16T08:50:47.323Z,0.70
2022-09-16T08:55:54.180Z,1.55
2022-09-16T09:01:06.917Z,0.80
2022-09-16T09:06:27.004Z,0.98
2022-09-16T09:11:44.748Z,0.90
2022-09-16T09:17:05.971Z,0.73
2022-09-16T09:22:24.756Z,0.65
2022-09-16T09:27:39.075Z,0.90
2022-09-16T09:33:27.657Z,0.80
2022-09-16T09:39:01.787Z,0.57
2022-09-16T09:44:38.942Z,0.82
2022-09-16T09:49:50.841Z,1.05
2022-09-16T09:55:02.691Z,0.60
2022-09-16T10:00:18.192Z,0.73
2022-09-16T10:05:28.335Z,0.50
2022-09-16T10:10:36.760Z,0.75
2022-09-16T10:15:44.056Z,0.63
2022-09-16T10:21:05.810Z,0.80
2022-09-16T10:26:25.255Z,0.85
2022-09-16T10:31:39.133Z,0.77
2022-09-16T10:36:47.562Z,0.52
2022-09-16T10:41:53.640Z,0.50
2022-09-16T10:47:02.692Z,0.47
2022-09-16T10:52:18.569Z,0.70
2022-09-16T10:57:29.326Z,0.40
2022-09-16T11:03:25.348Z,0.43
2022-09-16T11:08:51.946Z,0.52
2022-09-16T11:14:07.978Z,0.75
2022-09-16T11:19:21.845Z,0.63
2022-09-16T11:24:53.260Z,0.90
2022-09-16T11:30:11.338Z,0.68
2022-09-16T11:35:49.893Z,0.43
2022-09-16T11:41:03.495Z,0.90
2022-09-16T11:46:19.499Z,0.73
2022-09-16T11:51:41.570Z,0.60
2022-09-16T11:56:53.739Z,0.43
2022-09-16T12:02:14.247Z,0.60
2022-09-16T12:07:27.330Z,0.70
2022-09-16T12:12:41.747Z,0.88
2022-09-16T12:17:57.468Z,0.80
2022-09-16T12:23:10.515Z,0.68
2022-09-16T12:28:28.150Z,0.70
2022-09-16T12:33:40.616Z,0.60
2022-09-16T12:38:47.408Z,0.55
2022-09-16T12:44:47.529Z,0.63
2022-09-16T12:50:22.907Z,0.47
2022-09-16T12:55:57.095Z,0.50
2022-09-16T13:01:20.157Z,0.52
2022-09-16T13:06:30.147Z,0.60
2022-09-16T13:12:31.406Z,0.55
2022-09-16T13:17:04.227Z,0.60
2022-09-16T13:22:26.143Z,0.60
2022-09-16T13:27:36.058Z,0.70
2022-09-16T13:32:58.469Z,0.75
2022-09-16T13:38:24.640Z,0.55
2022-09-16T13:43:34.293Z,0.50
2022-09-16T13:48:47.597Z,0.77
2022-09-16T13:53:55.570Z,0.80
2022-09-16T13:59:18.755Z,0.47
2022-09-16T14:04:43.801Z,1.13
2022-09-16T14:09:59.942Z,0.52
2022-09-16T14:15:08.099Z,0.50
2022-09-16T14:20:19.956Z,0.50
2022-09-16T14:25:31.811Z,0.70
2022-09-16T14:30:38.386Z,0.57
2022-09-16T14:35:49.861Z,0.40
2022-09-16T14:40:56.362Z,0.55
2022-09-16T14:46:03.733Z,0.52
2022-09-16T14:51:23.947Z,0.50
2022-09-16T14:56:30.774Z,0.40
2022-09-16T15:01:37.342Z,0.40
2022-09-16T15:06:50.356Z,0.73
2022-09-16T15:12:01.431Z,0.70
2022-09-16T15:17:07.988Z,0.47
2022-09-16T15:22:17.668Z,0.45
2022-09-16T15:27:26.054Z,0.57
2022-09-16T15:32:33.237Z,0.30
2022-09-16T15:37:40.872Z,0.60
2022-09-16T15:42:47.247Z,0.60
2022-09-16T15:48:01.752Z,0.50
2022-09-16T15:53:13.560Z,0.30
2022-09-16T15:58:39.911Z,0.50
2022-09-16T16:03:57.324Z,0.43
2022-09-16T16:09:05.164Z,0.35
2022-09-16T16:14:11.352Z,0.30
2022-09-16T16:19:17.334Z,0.40
2022-09-16T16:24:26.320Z,0.22
2022-09-16T16:29:32.774Z,0.30
2022-09-16T16:34:41.242Z,0.57
2022-09-16T16:39:48.810Z,0.93
2022-09-16T16:44:56.797Z,0.50
2022-09-16T16:50:03.262Z,0.50
2022-09-16T16:55:12.008Z,0.50
2022-09-16T17:00:19.860Z,0.47
2022-09-16T17:05:26.278Z,0.77
2022-09-16T17:10:35.113Z,0.70
2022-09-16T17:15:41.585Z,0.70
2022-09-16T17:20:47.582Z,0.98
2022-09-16T17:25:55.079Z,0.90
2022-09-16T17:31:01.504Z,1.08
2022-09-16T17:36:11.096Z,0.93
2022-09-16T17:41:19.761Z,1.40
2022-09-16T17:51:36.361Z,1.45
2022-09-16T17:56:52.950Z,1.80
2022-09-16T18:02:01.124Z,1.50
2022-09-16T18:07:08.580Z,1.25
2022-09-16T18:12:16.582Z,1.13
2022-09-16T18:17:25.584Z,1.33
2022-09-16T18:22:35.771Z,1.33
2022-09-16T18:27:45.101Z,1.60
2022-09-16T18:32:54.100Z,1.85
2022-09-16T18:38:01.621Z,1.67
2022-09-16T18:43:09.885Z,1.83
2022-09-16T18:48:16.594Z,1.70
2022-09-16T18:53:24.136Z,1.73
2022-09-16T18:58:32.522Z,1.92
2022-09-16T19:03:39.046Z,1.63
2022-09-16T19:08:46.251Z,1.90
2022-09-16T19:13:56.565Z,1.53
2022-09-16T19:19:04.368Z,1.85
2022-09-16T19:24:15.822Z,1.42
2022-09-16T19:29:24.545Z,1.60
2022-09-16T19:34:31.160Z,1.70
2022-09-16T19:39:39.862Z,1.30
2022-09-16T19:44:47.756Z,1.60
2022-09-16T19:49:54.612Z,1.83
2022-09-16T19:55:01.130Z,1.30
2022-09-16T20:00:15.646Z,1.83
2022-09-16T20:05:21.916Z,1.88
2022-09-16T20:10:28.536Z,1.60
2022-09-16T20:15:36.267Z,1.60
2022-09-16T20:20:45.388Z,1.83
2022-09-16T20:25:59.614Z,1.70
2022-09-16T20:31:08.048Z,2.00
2022-09-16T20:36:17.189Z,2.15
2022-09-16T20:41:25.589Z,1.75
2022-09-16T20:46:35.893Z,1.53
2022-09-16T20:51:42.371Z,2.00
2022-09-16T20:56:49.860Z,1.65
2022-09-16T21:02:00.230Z,1.70
2022-09-16T21:07:07.796Z,1.33
2022-09-16T21:12:16.834Z,1.60
2022-09-16T21:17:24.511Z,1.70
2022-09-16T21:22:30.812Z,1.70
2022-09-16T21:27:37.280Z,1.40
2022-09-16T21:32:47.128Z,1.20
2022-09-16T21:37:56.357Z,1.67
2022-09-16T21:43:04.890Z,1.50
2022-09-16T21:48:16.088Z,1.10
2022-09-16T21:53:23.526Z,1.27
2022-09-16T21:58:31.212Z,1.23
2022-09-16T22:03:39.516Z,1.00
2022-09-16T22:08:48.984Z,0.88
2022-09-16T22:13:56.141Z,0.98
2022-09-16T22:19:07.077Z,1.00
2022-09-16T22:24:16.400Z,1.42
2022-09-16T22:29:22.459Z,0.90
2022-09-16T22:34:29.959Z,1.23
2022-09-16T22:39:36.087Z,1.00
2022-09-16T22:44:42.096Z,1.25
2022-09-16T22:49:49.985Z,1.23
2022-09-16T22:54:55.955Z,1.05
2022-09-16T23:00:02.676Z,1.30
2022-09-16T23:05:11.332Z,1.10
2022-09-16T23:10:17.825Z,1.40
2022-09-16T23:15:23.935Z,1.10
2022-09-16T23:20:32.202Z,1.50
2022-09-16T23:25:38.131Z,1.10
2022-09-16T23:30:44.000Z,1.30
2022-09-16T23:35:52.281Z,1.45
2022-09-16T23:40:58.748Z,1.30
2022-09-16T23:46:07.077Z,1.48
2022-09-16T23:51:15.491Z,1.33
2022-09-16T23:56:22.388Z,1.90
